OROVILLE DAM (ORO)

Elevation: 900' · FEATHER R basin · Operator: CA Dept of Water Resources/O & M


Station comments:

12/31/2014Sensor for reservoir elevation has been repaired. Data from 12/30/14, 0900 is valid.
12/30/2014Hourly elevation and storage data is invalid since 12/25/2014. Data is being flagged.


Provisional data, subject to change.
Query executed Friday at 19:40:02   clock

Select a sensor type for a plot of data.
Note: Reservoir Flows are daily averages.

Earlier

Date RES ELE    STORAGE    RES CHG    TOC STO    ABV TOC    OUTFLOW    INFLOW    EVAP    FNF    PPT INC    RAIN    PPTINC4   
 FEET   AF   AF   AF   AF   CFS   CFS   CFS   CFS   INCHES   INCHES   INCHES  
04/23/2015 763.16 1803500 589 3386412 -1583068 1654 1959 58 1720 e 0.44 25.08 0.00
04/24/2015 762.87 1800657 -2843 3390848 -1591587 2131 841 95 1800 e 0.28 25.36 0.44
04/25/2015 762.74 1799383 -1274 3385056 -1584608 2695 2105 52 1883 e 0.48 25.84 0.72
04/26/2015 762.42 1796251 -3132 3400630 -1602144 2630 1103 52 1960 e 0.00 25.84 0.04
04/27/2015 762.15 1793611 -2640 3415862 -1622168 2959 1689 60 2479 0.00 25.84 0.00
04/28/2015 761.79 1790095 -3516 3431388 -1641293 2802 1121 92 1378 0.00 25.84 0.00
04/29/2015 761.44 1786683 -3412 3446745 -1660062 2806 1107 71 1127 0.00 25.84 0.00
04/30/2015 761.01 1782496 -4187 3459052 -1676556 3203 1220 78 1905 0.00 25.84 0.00
05/01/2015 760.49 1777442 -5054 3468921 -1691479 3525 1081 104 1595 0.00 25.84 0.00
05/02/2015 759.74 1770160 -7282 3478789 -1708630 4271 712 107 1086 0.00 25.84 0.00
05/03/2015 759.04 1763386 -6774 3488658 -1725272 4285 977 107 1229 e 0.00 25.84 0.00
05/04/2015 758.26 1755860 -7526 3498526 -1742667 4238 546 53 1228 e 0.00 25.84 0.00
05/05/2015 757.75 1750951 -4909 3508395 -1757444 3164 746 106 1176 0.00 25.84 0.00
05/06/2015 757.00 1743750 -7201 3518263 -1774513 4506 893 67 1354 0.00 25.84 0.00
05/07/2015 755.88 1733035 -10715 3528132 -1795096 5866 557 93 1374 e 0.00 25.84 0.00
05/08/2015 754.82 1722938 -10097 3538000 -1815062 5829 877 92 1299 e 0.00 25.84 0.00
05/09/2015 753.71 1712409 -10529 3538000 -1825591 6296 1080 92 1299 e 0.00 25.84 0.00
05/10/2015 752.66 1702491 -9918 3538000 -1835509 5926 1017 92 1223 e 0.00 25.84 0.00
05/11/2015 751.54 1691957 -10534 3538000 -1846043 6342 1062 31 1233 0.00 25.84 0.00
05/12/2015 750.75 1684555 -7402 3538000 -1853445 6293 2684 76 1342 e 0.00 25.84 0.00
05/13/2015 749.40 1671959 -12596 3538000 -1866041 5410 -1046 36 1343 e 0.00 25.84 0.00
05/14/2015 748.64 1664897 -7062 3538000 -1873103 5526 2077 64 1436 e 0.00 25.84 0.00
05/15/2015 747.70 1656191 -8706 3538000 -1881809 4491 205 56 1436 e 0.00 25.84 0.00
05/16/2015 746.96 1649361 -6830 3538000 -1888639 4510 973 46 1479 0.00 25.84 0.00
05/17/2015 746.01 1640621 -8740 3538000 -1897379 4579 358 46 1479 0.00 25.84 0.00
05/18/2015 745.14 1632646 -7975 3538000 -1905354 4593 638 66 1242 0.00 25.84 0.00
05/19/2015 744.44 1626249 -6397 3538000 -1911751 4057 900 68 1532 0.00 25.84 0.00
05/20/2015 743.48 1617504 -8745 3538000 -1920496 4933 534 55 1496 0.00 25.84 0.00
05/21/2015 742.82 1611512 -5992 3538000 -1926488 4190 1242 73 1999 0.00 25.84 0.00
05/22/2015 -- -- -- -- -- -- -- -- -- -- -- 0.00

Later | Latest

Warning! This data is preliminary and subject to revision.

Show ORO Map | Plot ORO Data | 1 Month ORO Data | Real-Time ORO Data | ORO Info